Time;durP1;ratioP1;P1;durP2;ratioP2;P2;SDS_P1;SDS_P2;PMS_P1;PMS_P2;Temp;Humidity;BMP_temperature;BMP_pressure;BME280_temperature;BME280_humidity;BME280_pressure;Samples;Min_cycle;Max_cycle;Signal;HPM_P1;HPM_P2
2021/10/11 00:00:06;;;;;;;14.70;2.13;;;;;;;10.71;74.75;102785.69;5082140;28;20044;-78
2021/10/11 00:02:33;;;;;;;10.38;3.13;;;;;;;10.69;74.77;102791.53;5086856;28;20059;-79
2021/10/11 00:05:00;;;;;;;10.35;2.40;;;;;;;10.67;74.99;102779.91;5085963;28;20046;-79
2021/10/11 00:07:27;;;;;;;9.65;2.38;;;;;;;10.68;74.96;102786.28;5086821;28;20036;-79
2021/10/11 00:09:53;;;;;;;15.68;3.25;;;;;;;10.66;75.06;102783.81;5084580;28;20063;-79
2021/10/11 00:12:24;;;;;;;15.05;2.30;;;;;;;10.65;75.32;102781.31;5066101;28;20139;-79
2021/10/11 00:14:51;;;;;;;14.57;2.70;;;;;;;10.66;75.40;102777.44;5083631;28;20527;-80
2021/10/11 00:17:18;;;;;;;15.93;3.13;;;;;;;10.66;75.41;102780.22;5087666;28;20044;-79
2021/10/11 00:19:50;;;;;;;9.80;2.00;;;;;;;10.66;75.27;102782.97;5089758;28;20115;-80
2021/10/11 00:22:19;;;;;;;8.80;2.35;;;;;;;10.64;75.37;102779.69;5089140;28;20074;-79
2021/10/11 00:24:45;;;;;;;15.18;2.72;;;;;;;10.64;75.61;102785.22;5086313;28;20040;-79
2021/10/11 00:27:13;;;;;;;15.45;3.55;;;;;;;10.67;75.37;102782.66;5090141;28;20039;-80
2021/10/11 00:29:39;;;;;;;13.48;3.38;;;;;;;10.67;75.64;102784.66;5090690;28;20043;-79
2021/10/11 00:32:08;;;;;;;14.70;3.03;;;;;;;10.64;75.66;102779.69;5086545;28;20036;-79
2021/10/11 00:34:37;;;;;;;10.70;2.20;;;;;;;10.64;75.66;102782.47;5090289;28;20597;-79
2021/10/11 00:37:05;;;;;;;10.43;2.60;;;;;;;10.63;75.76;102786.34;5089016;28;20043;-79
2021/10/11 00:39:32;;;;;;;10.38;2.22;;;;;;;10.62;75.77;102793.81;5103878;27;20043;-80
2021/10/11 00:41:59;;;;;;;21.25;4.20;;;;;;;10.64;75.76;102785.22;5088006;28;20504;-80
2021/10/11 00:44:26;;;;;;;14.75;2.67;;;;;;;10.64;75.46;102791.59;5087389;28;20418;-78
2021/10/11 00:46:52;;;;;;;17.63;4.43;;;;;;;10.61;75.83;102788.59;5087646;28;20048;-80
2021/10/11 00:49:19;;;;;;;12.23;2.90;;;;;;;10.57;75.92;102784.75;5090675;28;20044;-79
2021/10/11 00:51:46;;;;;;;11.63;2.60;;;;;;;10.55;75.89;102789.75;5090156;28;20522;-79
2021/10/11 00:54:14;;;;;;;12.50;2.53;;;;;;;10.53;76.18;102789.25;5088316;28;20143;-79
2021/10/11 00:56:41;;;;;;;12.57;3.35;;;;;;;10.51;75.96;102785.94;5088437;28;20124;-80
2021/10/11 00:59:11;;;;;;;20.90;2.92;;;;;;;10.48;76.05;102786.53;5085554;28;20055;-80
2021/10/11 01:01:38;;;;;;;10.00;3.20;;;;;;;10.47;75.77;102784.88;5087789;28;20093;-79
2021/10/11 01:04:06;;;;;;;11.20;2.35;;;;;;;10.45;76.18;102787.13;5091145;28;20127;-79
2021/10/11 01:06:39;;;;;;;12.57;3.00;;;;;;;10.43;76.12;102797.66;5086294;28;20134;-79
2021/10/11 01:09:07;;;;;;;16.83;4.97;;;;;;;10.40;76.02;102794.34;5089464;28;20048;-80
2021/10/11 01:11:35;;;;;;;10.57;2.70;;;;;;;10.39;75.88;102789.94;5089036;28;20040;-79
2021/10/11 01:14:03;;;;;;;13.57;2.10;;;;;;;10.36;76.11;102796.06;5087276;28;20411;-79
2021/10/11 01:16:30;;;;;;;12.95;3.17;;;;;;;10.34;76.14;102798.31;5086169;28;20048;-79
2021/10/11 01:18:57;;;;;;;14.68;2.40;;;;;;;10.30;76.17;102800.00;5086541;28;20059;-80
2021/10/11 01:21:25;;;;;;;19.42;2.05;;;;;;;10.23;76.48;102798.72;5089739;28;20047;-79
2021/10/11 01:23:53;;;;;;;14.18;2.85;;;;;;;10.18;76.54;102796.81;5088270;28;20048;-79
2021/10/11 01:26:20;;;;;;;13.32;3.58;;;;;;;10.18;76.46;102802.38;5085896;28;20050;-79
2021/10/11 01:28:47;;;;;;;14.00;2.92;;;;;;;10.20;76.31;102802.88;5089754;28;20040;-79
2021/10/11 01:31:14;;;;;;;15.07;2.63;;;;;;;10.20;76.18;102808.44;5089532;28;20036;-80
2021/10/11 01:33:41;;;;;;;15.82;2.72;;;;;;;10.16;76.43;102810.13;5086764;28;20040;-79
2021/10/11 01:36:07;;;;;;;19.58;2.53;;;;;;;10.11;76.51;102804.59;5088221;28;20508;-80
2021/10/11 01:38:34;;;;;;;11.63;2.33;;;;;;;10.09;76.68;102804.06;5088614;28;20055;-79
2021/10/11 01:41:01;;;;;;;11.40;2.40;;;;;;;10.06;76.86;102799.13;5087474;28;20042;-80
2021/10/11 01:43:27;;;;;;;10.95;2.95;;;;;;;10.04;76.84;102795.81;5087913;28;20051;-79
2021/10/11 01:45:54;;;;;;;15.27;2.83;;;;;;;10.01;76.83;102796.41;5087225;28;20097;-79
2021/10/11 01:48:21;;;;;;;10.32;2.40;;;;;;;10.01;76.95;102809.41;5088099;28;20077;-80
2021/10/11 01:50:48;;;;;;;13.68;3.58;;;;;;;10.00;76.85;102808.59;5086070;28;20094;-79
2021/10/11 01:53:14;;;;;;;11.15;3.00;;;;;;;9.99;76.93;102806.94;5088294;28;20040;-79
2021/10/11 01:55:41;;;;;;;13.80;2.33;;;;;;;9.97;77.04;102809.19;5087744;28;20394;-80
2021/10/11 01:58:08;;;;;;;14.90;4.45;;;;;;;9.97;77.19;102803.66;5088597;28;20048;-79
2021/10/11 02:00:35;;;;;;;15.88;3.90;;;;;;;9.99;77.17;102806.94;5087824;28;20063;-80
2021/10/11 02:03:06;;;;;;;13.70;2.88;;;;;;;10.00;77.14;102808.59;5088183;28;20032;-79
2021/10/11 02:05:34;;;;;;;10.75;3.05;;;;;;;10.00;76.90;102805.84;5087725;28;20076;-80
2021/10/11 02:08:02;;;;;;;10.60;2.67;;;;;;;9.97;76.91;102809.19;5086337;28;20530;-79
2021/10/11 02:10:29;;;;;;;13.60;2.65;;;;;;;9.95;76.91;102794.81;5088267;28;20044;-79
2021/10/11 02:12:57;;;;;;;17.35;3.10;;;;;;;9.86;77.14;102785.47;5088165;28;20051;-79
2021/10/11 02:15:27;;;;;;;11.52;2.20;;;;;;;9.86;77.10;102784.66;5088351;28;20920;-79
2021/10/11 02:17:56;;;;;;;14.30;3.50;;;;;;;9.82;77.22;102778.91;5087476;28;20044;-79
2021/10/11 02:20:24;;;;;;;9.73;2.92;;;;;;;9.81;77.11;102782.78;5086725;28;20048;-80
2021/10/11 02:22:51;;;;;;;17.90;3.72;;;;;;;9.76;76.99;102775.34;5088680;28;20080;-80
2021/10/11 02:25:18;;;;;;;11.60;3.40;;;;;;;9.69;77.48;102774.00;5084279;28;20483;-80
2021/10/11 02:27:44;;;;;;;18.15;4.97;;;;;;;9.61;77.51;102769.13;5086582;28;20518;-79
2021/10/11 02:30:12;;;;;;;18.20;3.53;;;;;;;9.58;77.62;102761.41;5098728;28;20140;-79
2021/10/11 02:32:41;;;;;;;16.23;2.97;;;;;;;9.54;77.65;102755.63;5088691;28;20044;-79
2021/10/11 02:35:08;;;;;;;12.45;3.58;;;;;;;9.53;77.67;102753.97;5087626;28;20491;-79
2021/10/11 02:37:42;;;;;;;;;;;;;;;9.49;77.74;102747.38;5088705;28;20602;-79
2021/10/11 02:40:10;;;;;;;16.08;4.38;;;;;;;9.52;77.28;102743.19;5087648;28;20031;-79
2021/10/11 02:42:37;;;;;;;16.70;3.22;;;;;;;9.49;77.31;102741.00;5085310;28;20048;-79
2021/10/11 02:45:04;;;;;;;8.23;3.42;;;;;;;9.47;77.22;102738.53;5086268;28;20050;-79
2021/10/11 02:47:31;;;;;;;10.30;2.88;;;;;;;9.48;77.40;102745.72;5086802;28;20046;-79
2021/10/11 02:49:57;;;;;;;16.83;4.20;;;;;;;9.42;77.52;102746.06;5088017;28;20040;-80
2021/10/11 02:52:28;;;;;;;15.65;4.72;;;;;;;9.36;77.74;102738.91;5086862;28;20484;-79
2021/10/11 02:54:57;;;;;;;21.40;4.53;;;;;;;9.31;77.90;102737.03;5086016;28;20127;-79
2021/10/11 02:57:24;;;;;;;13.38;4.13;;;;;;;9.25;77.74;102749.22;5087540;28;20054;-79
2021/10/11 02:59:51;;;;;;;9.80;3.63;;;;;;;9.23;77.99;102731.28;5082828;28;20480;-79
2021/10/11 03:02:18;;;;;;;14.30;4.50;;;;;;;9.16;78.17;102740.69;5087718;28;20494;-79
2021/10/11 03:04:47;;;;;;;12.77;3.38;;;;;;;9.15;78.49;102741.84;5086373;28;20113;-79
2021/10/11 03:07:14;;;;;;;13.85;3.83;;;;;;;9.16;78.31;102735.19;5087887;28;20048;-79
2021/10/11 03:09:41;;;;;;;12.90;3.05;;;;;;;9.13;78.25;102738.50;5087550;28;20415;-79
2021/10/11 03:12:07;;;;;;;12.45;3.70;;;;;;;9.15;78.43;102733.53;5087322;28;20055;-79
2021/10/11 03:14:34;;;;;;;14.35;3.92;;;;;;;9.14;78.01;102742.09;5085937;28;20423;-79
2021/10/11 03:17:01;;;;;;;17.70;4.00;;;;;;;9.11;78.34;102737.97;5083310;28;20048;-79
2021/10/11 03:19:27;;;;;;;13.27;4.18;;;;;;;9.10;78.27;102733.59;5083515;28;20048;-79
2021/10/11 03:21:57;;;;;;;11.18;3.17;;;;;;;9.10;77.97;102741.88;5086918;28;20080;-80
2021/10/11 03:24:24;;;;;;;13.98;3.13;;;;;;;9.08;78.40;102738.53;5086428;28;20523;-80
2021/10/11 03:26:51;;;;;;;13.93;2.92;;;;;;;9.04;78.23;102734.72;5084427;28;20127;-80
2021/10/11 03:29:20;;;;;;;12.85;3.70;;;;;;;8.98;78.83;102730.34;5085510;28;20055;-80
2021/10/11 03:31:47;;;;;;;17.65;3.95;;;;;;;8.96;78.84;102727.03;5084769;28;20062;-80
2021/10/11 03:34:14;;;;;;;13.85;3.00;;;;;;;8.91;79.13;102718.78;5082158;28;20036;-79
2021/10/11 03:36:42;;;;;;;17.65;3.47;;;;;;;8.91;79.03;102729.00;5084904;28;20044;-79
2021/10/11 03:39:09;;;;;;;18.65;4.10;;;;;;;8.91;79.26;102729.00;5086199;28;20042;-79
2021/10/11 03:41:35;;;;;;;18.58;3.83;;;;;;;8.90;79.09;102725.41;5084513;28;20050;-79
2021/10/11 03:44:05;;;;;;;12.77;3.50;;;;;;;8.88;79.08;102730.41;5086370;28;20054;-79
2021/10/11 03:46:35;;;;;;;16.00;3.35;;;;;;;8.92;79.29;102725.94;5086696;28;20066;-79
2021/10/11 03:49:03;;;;;;;11.77;3.20;;;;;;;8.93;79.22;102727.59;5084716;28;20050;-79
2021/10/11 03:51:30;;;;;;;16.60;3.97;;;;;;;8.90;79.21;102728.19;5085576;28;20032;-79
2021/10/11 03:53:57;;;;;;;13.95;3.65;;;;;;;8.87;79.54;102739.00;5085904;28;20040;-80
2021/10/11 03:56:24;;;;;;;13.90;3.97;;;;;;;8.85;79.57;102741.19;5083631;28;20476;-79
2021/10/11 03:58:51;;;;;;;18.75;4.55;;;;;;;8.86;79.53;102742.84;5087089;28;20044;-79
2021/10/11 04:01:17;;;;;;;10.18;4.53;;;;;;;8.78;79.89;102736.00;5085855;28;20099;-79
2021/10/11 04:03:44;;;;;;;13.10;4.13;;;;;;;8.80;79.96;102738.47;5085082;28;20044;-80
2021/10/11 04:06:11;;;;;;;16.73;4.20;;;;;;;8.80;79.80;102736.53;5086637;28;20428;-80
2021/10/11 04:08:40;;;;;;;13.93;3.45;;;;;;;8.83;79.53;102735.13;5082879;28;20475;-79
2021/10/11 04:13:44;;;;;;;19.38;3.75;;;;;;;8.72;80.05;102719.72;5083671;28;20142;-80
2021/10/11 04:16:11;;;;;;;18.73;5.60;;;;;;;8.75;80.12;102730.19;5082918;28;20040;-80
2021/10/11 04:18:39;;;;;;;12.32;3.83;;;;;;;8.77;79.89;102727.97;5087863;28;20071;-79
2021/10/11 04:21:05;;;;;;;19.63;4.20;;;;;;;8.79;79.91;102734.88;5084095;28;20032;-79
2021/10/11 04:23:32;;;;;;;7.05;3.13;;;;;;;8.79;79.81;102737.63;5086028;28;20480;-80
2021/10/11 04:25:59;;;;;;;18.92;6.18;;;;;;;8.78;79.94;102730.47;5085178;28;20492;-80
2021/10/11 04:28:26;;;;;;;16.52;5.18;;;;;;;8.75;80.01;102733.78;5082649;28;20038;-80
2021/10/11 04:30:53;;;;;;;11.60;3.95;;;;;;;8.74;79.87;102745.09;5085018;28;20040;-80
2021/10/11 04:33:23;;;;;;;18.58;6.00;;;;;;;8.75;80.15;102731.03;5086624;28;20044;-80
2021/10/11 04:35:51;;;;;;;16.35;5.20;;;;;;;8.76;79.97;102729.94;5084760;28;20048;-80
2021/10/11 04:38:18;;;;;;;10.60;3.85;;;;;;;8.76;79.78;102740.16;5083507;28;20086;-80
2021/10/11 04:40:45;;;;;;;11.68;4.38;;;;;;;8.69;80.18;102737.69;5085695;28;20036;-79
2021/10/11 04:43:12;;;;;;;10.32;4.15;;;;;;;8.60;80.30;102735.81;5085486;28;20143;-79
2021/10/11 04:45:39;;;;;;;15.15;4.20;;;;;;;8.60;80.45;102735.81;5085961;28;20119;-80
2021/10/11 04:48:10;;;;;;;19.63;4.35;;;;;;;8.62;80.52;102742.69;5085862;28;20056;-80
2021/10/11 04:50:38;;;;;;;20.05;7.70;;;;;;;8.59;80.62;102737.75;5083765;28;20067;-80
2021/10/11 04:53:05;;;;;;;10.50;3.95;;;;;;;8.57;80.90;102738.03;5084992;28;20040;-80
2021/10/11 04:55:33;;;;;;;22.98;5.32;;;;;;;8.57;80.82;102728.94;5085510;28;20046;-79
2021/10/11 04:58:00;;;;;;;16.58;3.83;;;;;;;8.61;81.01;102729.16;5082719;28;20052;-80
2021/10/11 05:00:29;;;;;;;22.88;4.55;;;;;;;8.65;80.83;102730.25;5084173;28;20491;-80
2021/10/11 05:02:56;;;;;;;18.25;6.63;;;;;;;8.68;80.93;102735.22;5089349;28;20040;-79
2021/10/11 05:05:23;;;;;;;11.63;3.70;;;;;;;8.69;80.91;102737.69;5090037;28;20472;-80
2021/10/11 05:07:50;;;;;;;12.68;3.38;;;;;;;8.73;80.93;102740.72;5088738;28;20126;-79
2021/10/11 05:10:16;;;;;;;10.40;3.25;;;;;;;8.71;81.22;102740.97;5090639;28;20126;-80
2021/10/11 05:12:43;;;;;;;15.20;4.60;;;;;;;8.71;80.89;102734.66;5090292;28;20581;-80
2021/10/11 05:15:10;;;;;;;10.77;5.47;;;;;;;8.70;81.03;102733.81;5088691;28;20036;-79
2021/10/11 05:17:38;;;;;;;15.75;3.88;;;;;;;8.64;81.23;102729.44;5088879;28;20091;-79
2021/10/11 05:20:06;;;;;;;13.00;3.55;;;;;;;8.60;81.44;102727.53;5088469;28;20729;-80
2021/10/11 05:22:32;;;;;;;19.58;5.55;;;;;;;8.56;81.41;102730.84;5088157;28;20110;-79
2021/10/11 05:25:04;;;;;;;14.52;2.88;;;;;;;8.56;81.57;102732.78;5082767;28;20756;-80
2021/10/11 05:27:31;;;;;;;14.13;4.95;;;;;;;8.57;81.56;102734.44;5085546;28;20488;-80
2021/10/11 05:29:59;;;;;;;21.70;5.13;;;;;;;8.54;81.60;102730.31;5090442;28;20040;-80
2021/10/11 05:32:28;;;;;;;14.13;4.65;;;;;;;8.52;81.81;102734.47;5088123;28;20036;-80
2021/10/11 05:34:58;;;;;;;13.38;3.80;;;;;;;8.54;81.58;102730.31;5088966;28;20036;-79
2021/10/11 05:37:26;;;;;;;11.32;3.50;;;;;;;8.53;81.68;102733.34;5088408;28;20039;-80
2021/10/11 05:39:53;;;;;;;17.52;3.75;;;;;;;8.53;81.80;102733.34;5089698;28;20052;-80
2021/10/11 05:42:19;;;;;;;19.75;4.28;;;;;;;8.50;82.21;102731.97;5085571;28;20067;-80
2021/10/11 05:44:46;;;;;;;19.40;4.22;;;;;;;8.53;82.00;102733.34;5100834;28;20072;-80
2021/10/11 05:47:13;;;;;;;13.60;4.45;;;;;;;8.52;82.44;102727.00;5086695;28;20044;-80
2021/10/11 05:49:40;;;;;;;19.15;3.83;;;;;;;8.51;82.31;102727.28;5087490;28;20032;-79
2021/10/11 05:52:07;;;;;;;27.55;5.38;;;;;;;8.53;82.17;102727.81;5088424;28;20040;-79
2021/10/11 05:54:34;;;;;;;23.23;4.18;;;;;;;8.50;82.41;102734.75;5087100;28;20042;-79
2021/10/11 05:57:00;;;;;;;19.50;6.97;;;;;;;8.48;82.43;102736.13;5070322;28;20427;-80
2021/10/11 05:59:27;;;;;;;13.18;3.17;;;;;;;8.53;82.38;102736.09;5089202;28;20050;-80
2021/10/11 06:01:54;;;;;;;13.40;4.00;;;;;;;8.58;82.03;102741.59;5087696;28;20066;-79
2021/10/11 06:04:21;;;;;;;13.73;3.47;;;;;;;8.56;82.24;102733.63;5085783;28;20541;-80
2021/10/11 06:06:47;;;;;;;20.00;5.25;;;;;;;8.51;82.45;102738.34;5086028;28;20046;-80
2021/10/11 06:09:15;;;;;;;12.27;3.30;;;;;;;8.48;82.61;102736.13;5089391;28;20040;-80
2021/10/11 06:11:42;;;;;;;18.92;6.32;;;;;;;8.48;82.69;102741.66;5084066;28;20043;-80
2021/10/11 06:14:09;;;;;;;12.77;4.25;;;;;;;8.48;82.73;102736.13;5087000;28;20495;-80
2021/10/11 06:16:35;;;;;;;13.80;4.20;;;;;;;8.50;82.75;102751.31;5086606;28;20048;-79
2021/10/11 06:19:02;;;;;;;14.60;3.78;;;;;;;8.54;82.60;102743.28;5078727;28;20043;-79
2021/10/11 06:21:29;;;;;;;14.05;4.18;;;;;;;8.52;82.39;102748.28;5087390;28;20033;-79
2021/10/11 06:23:56;;;;;;;11.02;4.03;;;;;;;8.49;82.80;102755.19;5086630;28;20051;-80
2021/10/11 06:26:23;;;;;;;16.65;3.80;;;;;;;8.49;82.76;102754.34;5088061;28;20043;-80
2021/10/11 06:28:49;;;;;;;17.38;4.13;;;;;;;8.51;82.66;102772.28;5086170;28;20132;-80
2021/10/11 06:31:16;;;;;;;18.30;4.82;;;;;;;8.53;82.71;102763.72;5083609;28;20044;-80
2021/10/11 06:33:43;;;;;;;19.27;5.65;;;;;;;8.54;82.54;102770.91;5086284;28;20577;-79
2021/10/11 06:36:10;;;;;;;12.75;4.85;;;;;;;8.52;82.59;102762.06;5086391;28;20040;-80
2021/10/11 06:38:37;;;;;;;15.80;5.82;;;;;;;8.52;82.62;102775.88;5084961;28;20040;-79
2021/10/11 06:41:04;;;;;;;11.48;4.32;;;;;;;8.48;82.75;102769.25;5066291;28;20047;-80
2021/10/11 06:43:31;;;;;;;16.42;5.32;;;;;;;8.42;82.79;102767.63;5087809;28;20052;-80
2021/10/11 06:45:57;;;;;;;17.08;4.63;;;;;;;8.43;82.71;102770.09;5087490;28;20036;-79
2021/10/11 06:48:24;;;;;;;14.90;3.67;;;;;;;8.42;82.81;102767.63;5085256;28;20052;-80
2021/10/11 06:50:51;;;;;;;9.70;4.53;;;;;;;8.46;82.80;102768.72;5085752;28;20055;-80
2021/10/11 06:53:18;;;;;;;12.25;4.43;;;;;;;8.49;82.67;102770.91;5087945;28;20105;-81
2021/10/11 06:55:44;;;;;;;16.00;4.03;;;;;;;8.49;82.90;102771.75;5086381;28;20131;-80
2021/10/11 06:58:11;;;;;;;13.70;5.32;;;;;;;8.51;82.67;102777.81;5085686;28;20047;-80
2021/10/11 07:00:38;;;;;;;8.88;4.53;;;;;;;8.51;82.46;102774.22;5086392;28;20040;-79
2021/10/11 07:03:06;;;;;;;24.25;5.50;;;;;;;8.52;82.52;102778.66;5088446;28;20040;-79
2021/10/11 07:05:35;;;;;;;15.52;4.50;;;;;;;8.50;82.63;102767.03;5084859;28;20122;-79
2021/10/11 07:08:09;;;;;;;16.50;6.13;;;;;;;8.48;82.61;102780.28;5085156;28;20032;-81
2021/10/11 07:10:37;;;;;;;13.70;5.22;;;;;;;8.49;82.61;102780.03;5083208;28;20047;-80
2021/10/11 07:13:04;;;;;;;11.80;4.78;;;;;;;8.44;82.58;102787.50;5094933;28;20134;-80
2021/10/11 07:15:34;;;;;;;13.10;6.13;;;;;;;8.45;82.70;102787.22;5080823;28;20047;-80
2021/10/11 07:18:01;;;;;;;12.88;6.05;;;;;;;8.45;82.86;102783.63;5079383;28;20044;-79
2021/10/11 07:20:28;;;;;;;9.82;5.22;;;;;;;8.45;82.65;102783.63;5084864;28;20050;-79
2021/10/11 07:22:54;;;;;;;13.18;5.97;;;;;;;8.46;82.82;102788.03;5088949;27;20464;-82
2021/10/11 07:25:21;;;;;;;12.35;5.32;;;;;;;8.45;82.52;102791.91;5082969;28;20040;-84
2021/10/11 07:27:49;;;;;;;12.73;5.20;;;;;;;8.45;82.76;102787.22;5084363;28;20039;-84
2021/10/11 07:30:16;;;;;;;14.43;5.55;;;;;;;8.46;82.93;102788.03;5084940;28;20125;-82
2021/10/11 07:32:42;;;;;;;14.93;5.80;;;;;;;8.45;82.92;102783.63;5081688;28;20044;-82
2021/10/11 07:35:10;;;;;;;11.02;5.15;;;;;;;8.49;82.97;102791.06;5084164;28;20237;-81
2021/10/11 07:37:52;;;;;;;14.50;5.75;;;;;;;8.55;82.79;102791.88;5083496;28;20044;-86
2021/10/11 07:40:39;;;;;;;11.82;6.13;;;;;;;8.59;82.79;102784.69;5085619;28;20044;-83
2021/10/11 07:43:06;;;;;;;10.75;5.20;;;;;;;8.58;82.74;102786.59;5082774;28;20054;-82
2021/10/11 07:45:33;;;;;;;28.08;6.60;;;;;;;8.55;82.49;102786.38;5085042;28;20101;-79
2021/10/11 07:48:00;;;;;;;20.40;6.03;;;;;;;8.53;82.92;102791.31;5084397;28;20051;-79
2021/10/11 07:50:27;;;;;;;24.35;6.43;;;;;;;8.52;82.97;102803.50;5085492;28;20048;-85
2021/10/11 07:52:54;;;;;;;21.83;6.30;;;;;;;8.53;83.36;102794.09;5100632;28;20368;-79
2021/10/11 07:55:21;;;;;;;19.90;6.93;;;;;;;8.58;83.17;102791.28;5086232;28;20491;-78
2021/10/11 07:57:48;;;;;;;15.55;5.63;;;;;;;8.62;83.31;102803.44;5086247;28;20113;-78
2021/10/11 08:00:17;;;;;;;14.60;6.00;;;;;;;8.68;82.99;102807.84;5088995;28;20105;-78
2021/10/11 08:02:45;;;;;;;17.40;7.07;;;;;;;8.69;82.98;102808.66;5084823;28;20101;-77
2021/10/11 08:05:14;;;;;;;15.07;5.57;;;;;;;8.70;83.06;102805.63;5082093;28;20058;-78
2021/10/11 08:07:44;;;;;;;17.42;6.85;;;;;;;8.75;83.43;102808.34;5084876;28;20815;-79
2021/10/11 08:10:12;;;;;;;9.18;5.55;;;;;;;8.76;83.09;102804.50;5082625;28;20472;-80
2021/10/11 08:12:39;;;;;;;11.88;6.07;;;;;;;8.82;83.10;102817.16;5082352;28;20048;-80
2021/10/11 08:15:08;;;;;;;12.35;6.40;;;;;;;8.87;83.16;102817.13;5082245;28;20419;-78
2021/10/11 08:17:35;;;;;;;11.40;6.40;;;;;;;8.87;82.99;102828.19;5084951;28;20066;-83
2021/10/11 08:20:04;;;;;;;13.05;6.05;;;;;;;8.90;83.10;102833.13;5084810;28;20519;-79
2021/10/11 08:22:31;;;;;;;9.27;5.15;;;;;;;8.93;83.35;102828.97;5084828;28;20036;-79
2021/10/11 08:24:57;;;;;;;9.05;5.03;;;;;;;8.96;83.20;102837.53;5084113;28;20395;-83
2021/10/11 08:27:25;;;;;;;10.20;5.10;;;;;;;8.93;83.35;102837.28;5083958;28;20506;-81
2021/10/11 08:29:52;;;;;;;11.00;5.88;;;;;;;8.97;83.36;102844.72;5081633;28;20044;-82
2021/10/11 08:32:24;;;;;;;13.43;6.10;;;;;;;8.98;83.54;102853.81;5083880;28;20062;-78
2021/10/11 08:34:52;;;;;;;10.18;5.22;;;;;;;9.02;83.35;102846.63;5085205;28;20504;-79
2021/10/11 08:37:19;;;;;;;14.32;5.22;;;;;;;9.07;83.51;102833.63;5088306;28;20040;-78
2021/10/11 08:39:46;;;;;;;7.28;5.15;;;;;;;9.16;83.47;102826.38;5102041;27;20040;-79
2021/10/11 08:42:15;;;;;;;12.02;5.78;;;;;;;9.24;83.68;102829.66;5089785;28;20097;-79
2021/10/11 08:44:43;;;;;;;10.82;5.70;;;;;;;9.32;83.66;102834.59;5087511;28;20048;-79
2021/10/11 08:47:12;;;;;;;10.20;5.18;;;;;;;9.37;83.46;102837.31;5083873;28;20044;-78
2021/10/11 08:49:41;;;;;;;10.40;4.68;;;;;;;9.38;83.28;102825.13;5087277;28;20626;-79
2021/10/11 08:52:09;;;;;;;19.27;5.28;;;;;;;9.42;83.33;102823.47;5088048;28;20534;-79
2021/10/11 08:54:38;;;;;;;15.65;5.97;;;;;;;9.50;83.50;102820.09;5087319;28;20039;-79
2021/10/11 08:57:05;;;;;;;15.07;5.55;;;;;;;9.58;83.69;102813.94;5087050;28;20120;-79
2021/10/11 08:59:46;;;;;;;17.08;4.95;;;;;;;9.66;83.48;102813.34;5091345;28;20097;-78
2021/10/11 09:02:14;;;;;;;10.95;5.03;;;;;;;9.75;83.14;102819.88;5085016;28;20048;-79
2021/10/11 09:04:53;;;;;;;8.50;4.68;;;;;;;9.84;83.34;102815.38;5087357;28;20138;-77
2021/10/11 09:07:23;;;;;;;15.30;5.55;;;;;;;9.94;83.29;102812.53;5087571;28;20062;-78
2021/10/11 09:09:51;;;;;;;12.32;5.22;;;;;;;10.02;83.17;102789.75;5088714;28;20044;-79
2021/10/11 09:12:22;;;;;;;8.20;4.75;;;;;;;10.11;83.25;102793.53;5085727;28;20112;-79
2021/10/11 09:15:02;;;;;;;16.27;6.20;;;;;;;10.20;83.03;102797.34;5087315;28;20098;-78
2021/10/11 09:17:32;;;;;;;18.30;5.30;;;;;;;10.28;83.17;102793.94;5088624;28;20044;-79
2021/10/11 09:20:29;;;;;;;12.57;4.72;;;;;;;10.42;83.06;102793.25;5088318;28;20044;-79
2021/10/11 09:22:58;;;;;;;17.08;7.50;;;;;;;10.52;83.15;102784.81;5080346;28;20048;-79
2021/10/11 09:25:37;;;;;;;17.33;5.68;;;;;;;10.57;82.60;102784.75;5088680;28;20506;-79
2021/10/11 09:28:06;;;;;;;10.05;4.47;;;;;;;10.61;82.74;102788.59;5086890;28;20488;-78
2021/10/11 09:30:37;;;;;;;17.77;4.63;;;;;;;10.63;82.35;102789.94;5079543;28;20054;-79
2021/10/11 09:33:15;;;;;;;15.25;4.47;;;;;;;10.62;82.40;102787.44;5086045;28;20452;-78
2021/10/11 09:35:43;;;;;;;16.65;4.35;;;;;;;10.65;82.34;102787.69;5089456;28;20071;-79
2021/10/11 09:38:17;;;;;;;16.23;4.30;;;;;;;10.66;82.33;102782.97;5087060;28;20040;-79
2021/10/11 09:40:44;;;;;;;21.92;4.85;;;;;;;10.67;82.19;102787.41;5085537;28;20526;-79
2021/10/11 09:43:16;;;;;;;17.08;4.10;;;;;;;10.71;82.39;102786.50;5087923;28;20067;-79
2021/10/11 09:45:43;;;;;;;14.30;3.47;;;;;;;10.81;82.30;102791.09;5086176;28;20067;-79
2021/10/11 09:48:11;;;;;;;15.20;3.65;;;;;;;10.94;82.41;102790.34;5082723;28;20051;-78
2021/10/11 09:50:39;;;;;;;8.68;2.92;;;;;;;11.07;82.35;102789.63;5086243;28;20044;-82
2021/10/11 09:53:10;;;;;;;16.52;5.18;;;;;;;11.13;82.15;102777.34;5086393;28;20050;-82
2021/10/11 09:55:39;;;;;;;22.65;4.70;;;;;;;11.17;81.78;102783.94;5086167;28;20123;-82
2021/10/11 09:58:15;;;;;;;10.32;3.22;;;;;;;11.21;81.79;102789.69;5085023;28;20044;-82
2021/10/11 10:00:57;;;;;;;14.93;3.97;;;;;;;11.24;81.80;102773.28;5083074;28;20392;-82
2021/10/11 10:03:24;;;;;;;8.90;2.83;;;;;;;11.29;81.74;102789.84;5086458;28;20105;-81
2021/10/11 10:05:55;;;;;;;14.43;3.22;;;;;;;11.28;81.63;102779.88;5086697;28;20086;-80
2021/10/11 10:08:25;;;;;;;13.32;3.45;;;;;;;11.29;81.56;102776.00;5087559;28;20040;-81
2021/10/11 10:10:58;;;;;;;9.48;3.20;;;;;;;11.30;81.54;102774.88;5068521;28;20091;-82
2021/10/11 10:13:25;;;;;;;13.57;3.17;;;;;;;11.34;81.80;102784.22;5082924;28;20039;-81
2021/10/11 10:15:57;;;;;;;17.13;4.00;;;;;;;11.37;81.64;102778.09;5085632;28;20063;-79
2021/10/11 10:18:24;;;;;;;12.65;2.92;;;;;;;11.41;81.67;102779.13;5087131;28;20032;-81
2021/10/11 10:20:52;;;;;;;12.45;3.05;;;;;;;11.45;81.57;102777.41;5084589;28;20048;-81
2021/10/11 10:23:22;;;;;;;14.18;2.58;;;;;;;11.47;81.40;102777.09;5087234;28;20048;-81
2021/10/11 10:25:49;;;;;;;12.18;2.55;;;;;;;11.47;81.53;102780.69;5085216;28;20051;-82
2021/10/11 10:28:16;;;;;;;16.65;3.33;;;;;;;11.50;81.44;102773.72;5086435;28;20059;-81
2021/10/11 10:31:03;;;;;;;13.85;3.80;;;;;;;11.52;81.10;102772.28;5086045;28;20044;-82
2021/10/11 10:33:38;;;;;;;12.48;2.30;;;;;;;11.58;81.01;102757.22;5083330;28;20121;-82
2021/10/11 10:36:24;;;;;;;16.52;3.53;;;;;;;11.60;80.81;102763.28;5083358;28;20046;-81
2021/10/11 10:38:56;;;;;;;17.02;3.25;;;;;;;11.61;80.93;102767.72;5083727;28;20159;-81
2021/10/11 10:41:23;;;;;;;13.27;3.30;;;;;;;11.65;80.98;102773.44;5086378;28;20040;-81
2021/10/11 10:43:50;;;;;;;13.45;3.17;;;;;;;11.70;81.00;102772.59;5085548;28;20044;-81
2021/10/11 10:46:17;;;;;;;16.00;3.53;;;;;;;11.77;80.94;102765.53;5087021;28;20478;-81
2021/10/11 10:48:51;;;;;;;17.10;2.80;;;;;;;11.81;80.78;102766.53;5085929;28;20044;-81
2021/10/11 10:51:19;;;;;;;14.88;3.00;;;;;;;11.86;80.80;102769.22;5084585;28;20043;-82
2021/10/11 10:53:55;;;;;;;11.02;2.92;;;;;;;11.93;80.65;102764.13;5082715;28;20043;-81
2021/10/11 10:56:23;;;;;;;15.18;3.53;;;;;;;12.01;80.61;102770.91;5083253;28;20131;-81
2021/10/11 10:59:06;;;;;;;20.52;3.38;;;;;;;12.12;80.78;102761.28;5086440;28;20040;-82
2021/10/11 11:01:33;;;;;;;14.82;3.00;;;;;;;12.24;80.62;102758.81;5084238;28;20449;-82
2021/10/11 11:04:10;;;;;;;15.85;3.80;;;;;;;12.31;80.47;102769.53;5081904;28;20035;-81
2021/10/11 11:06:37;;;;;;;14.55;3.25;;;;;;;12.40;80.54;102768.50;5082320;28;20042;-81
2021/10/11 11:09:04;;;;;;;16.23;2.90;;;;;;;12.43;80.12;102767.03;5082963;28;20512;-81
2021/10/11 11:11:31;;;;;;;10.55;2.72;;;;;;;12.49;80.16;102757.50;5084094;28;20042;-81
2021/10/11 11:13:59;;;;;;;18.55;5.78;;;;;;;12.56;80.21;102758.72;5082348;28;20616;-80
2021/10/11 11:16:30;;;;;;;12.20;2.70;;;;;;;12.61;80.15;102764.16;5083932;28;20044;-82
2021/10/11 11:18:59;;;;;;;13.73;3.22;;;;;;;12.68;80.18;102770.13;5084291;28;20566;-81
2021/10/11 11:21:27;;;;;;;9.07;2.50;;;;;;;12.71;79.92;102775.06;5082036;28;20044;-81
2021/10/11 11:23:54;;;;;;;15.30;2.60;;;;;;;12.73;79.46;102761.66;5082309;28;20046;-80
2021/10/11 11:26:20;;;;;;;14.57;3.22;;;;;;;12.74;79.22;102766.09;5084097;28;20039;-82
2021/10/11 11:28:47;;;;;;;11.30;3.25;;;;;;;12.78;79.04;102764.34;5082153;28;20047;-83